Time;durP1;ratioP1;P1;durP2;ratioP2;P2;SDS_P1;SDS_P2;PMS_P1;PMS_P2;Temp;Humidity;BMP_temperature;BMP_pressure;BME280_temperature;BME280_humidity;BME280_pressure;Samples;Min_cycle;Max_cycle;Signal;HPM_P1;HPM_P2
2021/06/05 09:08:30;;;;;;;565.75;533.42;;;20.20;99.90;;;;;;5144407;27;20531;-69
2021/06/05 09:10:58;;;;;;;662.15;622.20;;;17.70;99.90;;;;;;5109975;28;20562;-69
2021/06/05 09:13:24;;;;;;;765.80;717.97;;;17.80;99.90;;;;;;5111180;28;20220;-67
2021/06/05 09:16:18;;;;;;;823.95;771.70;;;17.80;99.90;;;;;;5111141;28;20616;-68
2021/06/05 09:19:08;;;;;;;772.00;724.17;;;17.80;99.90;;;;;;5111087;28;20249;-68
2021/06/05 09:31:20;;;;;;;631.10;593.55;;;20.00;99.90;;;;;;5131860;27;20525;-68
2021/06/05 09:33:46;;;;;;;714.08;670.60;;;17.90;99.90;;;;;;5131748;28;20170;-68
2021/06/05 09:36:29;;;;;;;758.58;711.83;;;18.00;99.90;;;;;;5131692;28;20163;-68
2021/06/05 09:38:58;;;;;;;858.28;804.25;;;18.20;99.90;;;;;;5132150;28;20162;-69
2021/06/05 09:41:34;;;;;;;912.90;854.47;;;18.40;99.90;;;;;;5131594;27;20517;-68
2021/06/05 09:44:27;;;;;;;970.83;906.80;;;18.50;99.90;;;;;;5131544;28;20165;-69
2021/06/05 09:47:01;;;;;;;1001.67;934.22;;;18.70;99.90;;;;;;5131549;27;20154;-69
2021/06/05 09:49:34;;;;;;;1083.82;997.67;;;18.90;99.90;;;;;;5130081;28;20267;-69
2021/06/05 09:52:07;;;;;;;1183.35;999.90;;;19.20;99.90;;;;;;5131416;28;20173;-69
2021/06/05 09:54:37;;;;;;;1144.53;999.90;;;19.30;99.90;;;;;;5131336;28;20162;-69
2021/06/05 09:57:30;;;;;;;1198.03;999.90;;;19.50;99.90;;;;;;5129951;28;20166;-69
2021/06/05 10:00:01;;;;;;;1243.72;999.90;;;19.80;99.90;;;;;;5131175;28;20166;-69
2021/06/05 10:02:28;;;;;;;1217.70;999.90;;;19.90;99.90;;;;;;5131178;28;20204;-69
2021/06/05 10:05:20;;;;;;;1257.57;999.90;;;20.10;99.90;;;;;;5131138;28;20203;-69
2021/06/05 10:07:46;;;;;;;1289.57;999.90;;;20.50;99.90;;;;;;5131088;28;20231;-69
2021/06/05 10:10:23;;;;;;;1351.75;999.90;;;20.70;99.90;;;;;;5130892;28;20190;-69
2021/06/05 10:12:50;;;;;;;1305.70;999.90;;;20.50;99.90;;;;;;5131030;28;20305;-69
2021/06/05 10:15:27;;;;;;;1280.57;999.90;;;20.40;99.90;;;;;;5130970;27;20162;-68
2021/06/05 10:17:56;;;;;;;1274.38;999.90;;;20.40;99.90;;;;;;5130859;28;20170;-69
2021/06/05 10:20:25;;;;;;;1307.55;999.90;;;20.40;99.90;;;;;;5129582;28;20250;-69
2021/06/05 10:22:57;;;;;;;1327.85;999.90;;;20.50;99.90;;;;;;5130731;28;20170;-69
2021/06/05 10:25:38;;;;;;;1316.35;999.90;;;20.60;99.90;;;;;;5130612;27;20291;-69
2021/06/05 10:28:20;;;;;;;1355.45;999.90;;;20.50;99.90;;;;;;5130700;28;20174;-69
2021/06/05 10:30:51;;;;;;;1324.13;999.90;;;20.50;99.90;;;;;;5130374;28;20218;-69
2021/06/05 10:33:41;;;;;;;1331.88;999.90;;;20.60;99.90;;;;;;5130548;28;20173;-69
2021/06/05 10:36:36;;;;;;;1339.82;999.90;;;20.60;99.90;;;;;;5130402;28;20196;-69
2021/06/05 10:39:08;;;;;;;1346.32;999.90;;;20.60;99.90;;;;;;5126245;28;20269;-69
2021/06/05 10:41:39;;;;;;;1341.75;999.90;;;20.70;99.90;;;;;;5122061;28;20226;-69
2021/06/05 10:44:06;;;;;;;1333.20;999.90;;;20.90;99.90;;;;;;5116894;28;20520;-69
2021/06/05 10:46:53;;;;;;;1349.20;999.90;;;21.10;99.90;;;;;;5116547;28;20627;-69
2021/06/05 10:49:25;;;;;;;1361.32;999.90;;;21.30;99.90;;;;;;5116517;28;20551;-69
2021/06/05 10:52:03;;;;;;;1359.18;999.90;;;21.30;99.90;;;;;;5116527;28;20505;-69
2021/06/05 10:54:30;;;;;;;1358.50;999.90;;;21.40;99.90;;;;;;5116525;28;20169;-69
2021/06/05 10:57:02;;;;;;;1375.13;999.90;;;21.30;99.90;;;;;;5116495;28;20162;-69
2021/06/05 10:59:45;;;;;;;1364.15;999.90;;;21.20;99.90;;;;;;5116412;28;20162;-69
2021/06/05 11:02:39;;;;;;;1360.10;999.90;;;21.20;99.90;;;;;;5114992;28;20545;-69
2021/06/05 11:05:16;;;;;;;1366.05;999.90;;;21.20;99.90;;;;;;5116323;28;20170;-69
2021/06/05 11:07:44;;;;;;;1363.07;999.90;;;21.10;99.90;;;;;;5116257;28;20177;-69
2021/06/05 11:10:10;;;;;;;1363.53;999.90;;;20.90;99.90;;;;;;5116139;28;20537;-69
2021/06/05 11:12:35;;;;;;;1374.20;999.90;;;20.90;99.90;;;;;;5115998;28;20162;-69
2021/06/05 11:15:02;;;;;;;1373.45;999.90;;;20.90;99.90;;;;;;5114737;28;20177;-69
2021/06/05 11:17:35;;;;;;;1364.88;999.90;;;20.80;99.90;;;;;;5116000;28;20170;-69
2021/06/05 11:20:08;;;;;;;1366.38;999.90;;;20.80;99.90;;;;;;5116013;28;20170;-69
2021/06/05 11:22:54;;;;;;;1363.43;999.90;;;20.60;99.90;;;;;;5115950;28;20170;-69
2021/06/05 11:25:20;;;;;;;1367.00;999.90;;;20.60;99.90;;;;;;5097473;28;20206;-69
2021/06/05 11:27:49;;;;;;;1373.70;999.90;;;20.50;99.90;;;;;;5115891;28;20184;-69
2021/06/05 11:30:21;;;;;;;1382.82;999.90;;;20.50;99.90;;;;;;5115530;28;20218;-69
2021/06/05 11:32:53;;;;;;;1376.47;999.90;;;20.50;99.90;;;;;;5115867;28;20169;-69
2021/06/05 11:35:54;;;;;;;1370.07;999.90;;;20.50;99.90;;;;;;5115323;28;20173;-69
2021/06/05 11:38:20;;;;;;;1363.95;999.90;;;20.50;99.90;;;;;;5111950;28;20177;-69
2021/06/05 11:40:58;;;;;;;1368.00;999.90;;;20.50;99.90;;;;;;5115439;28;20556;-69
2021/06/05 11:43:30;;;;;;;1371.38;999.90;;;20.60;99.90;;;;;;5114301;28;20287;-69
2021/06/05 11:46:30;;;;;;;1363.85;999.90;;;20.80;99.90;;;;;;5115476;28;20557;-69
2021/06/05 11:49:04;;;;;;;1367.38;999.90;;;20.90;99.90;;;;;;5115133;28;20174;-69
2021/06/05 11:51:37;;;;;;;1359.88;999.90;;;20.90;99.90;;;;;;5115422;28;20206;-69
2021/06/05 11:54:15;;;;;;;1370.82;999.90;;;20.80;99.90;;;;;;5114339;28;20162;-69
2021/06/05 11:57:17;;;;;;;1372.97;999.90;;;20.80;99.90;;;;;;5115297;28;20170;-69
2021/06/05 11:59:45;;;;;;;1372.93;999.90;;;20.60;99.90;;;;;;5072962;28;20210;-69
2021/06/05 12:02:27;;;;;;;1372.57;999.90;;;20.70;99.90;;;;;;5115194;28;20170;-69
2021/06/05 12:04:57;;;;;;;1362.68;999.90;;;20.70;99.90;;;;;;5115196;28;20205;-69
2021/06/05 12:07:33;;;;;;;1365.97;999.90;;;20.90;99.90;;;;;;5115069;28;20174;-69
2021/06/05 12:09:59;;;;;;;1355.72;999.90;;;21.10;99.90;;;;;;5115003;28;20561;-69
2021/06/05 12:12:30;;;;;;;1364.25;999.90;;;21.30;99.90;;;;;;5114987;28;20219;-69
2021/06/05 12:15:15;;;;;;;1367.75;999.90;;;21.20;99.90;;;;;;5114982;28;20186;-69
2021/06/05 12:17:43;;;;;;;1379.88;999.90;;;21.00;99.90;;;;;;5114878;28;20169;-69
2021/06/05 12:20:12;;;;;;;1381.25;999.90;;;20.60;99.90;;;;;;5114859;28;20227;-69
2021/06/05 12:22:39;;;;;;;1389.00;999.90;;;20.30;99.90;;;;;;5114820;28;20169;-69
2021/06/05 12:25:20;;;;;;;1388.15;999.90;;;20.00;99.90;;;;;;5114681;28;20603;-69
2021/06/05 12:27:45;;;;;;;1373.88;999.90;;;19.80;99.90;;;;;;5114681;28;20530;-69
2021/06/05 12:30:26;;;;;;;1352.85;999.90;;;19.60;99.90;;;;;;5114379;28;20215;-69
2021/06/05 12:33:05;;;;;;;1352.22;999.90;;;19.60;99.90;;;;;;5114363;27;20215;-69
2021/06/05 12:35:44;;;;;;;1363.90;999.90;;;19.60;99.90;;;;;;5114491;28;20174;-69
2021/06/05 12:38:13;;;;;;;1348.85;999.90;;;19.70;99.90;;;;;;5114366;28;20174;-69
2021/06/05 12:40:57;;;;;;;1344.45;999.90;;;19.60;99.90;;;;;;5114473;28;20170;-69
2021/06/05 12:43:29;;;;;;;1318.75;999.90;;;19.30;99.90;;;;;;5114458;28;20163;-69
2021/06/05 12:46:08;;;;;;;1329.97;999.90;;;19.20;99.90;;;;;;5114507;28;20570;-69
2021/06/05 12:48:35;;;;;;;1305.32;999.90;;;19.20;99.90;;;;;;5114299;28;20162;-69
2021/06/05 12:51:04;;;;;;;1279.65;999.90;;;19.10;99.90;;;;;;5114226;28;20198;-69
2021/06/05 12:53:30;;;;;;;1263.05;999.90;;;19.10;99.90;;;;;;5114261;28;20177;-69
2021/06/05 12:55:59;;;;;;;1247.72;999.90;;;19.10;99.90;;;;;;5114217;28;20624;-69
2021/06/05 12:58:33;;;;;;;1239.28;999.90;;;19.20;99.90;;;;;;5114168;28;20568;-69
2021/06/05 13:00:59;;;;;;;1266.88;999.90;;;19.50;99.90;;;;;;5114231;28;20240;-69
2021/06/05 13:03:44;;;;;;;1290.03;999.90;;;19.80;99.90;;;;;;5114020;28;20165;-69
2021/06/05 13:06:20;;;;;;;1291.55;999.90;;;20.00;99.90;;;;;;5114112;28;20163;-69
2021/06/05 13:08:49;;;;;;;1292.45;999.90;;;20.20;99.90;;;;;;5114013;28;20527;-69
2021/06/05 13:11:36;;;;;;;1341.60;999.90;;;20.40;99.90;;;;;;5113965;28;20539;-69
2021/06/05 13:14:29;;;;;;;1368.28;999.90;;;20.70;99.90;;;;;;5114026;28;20186;-69
2021/06/05 13:17:25;;;;;;;1353.90;999.90;;;20.60;99.90;;;;;;5110798;28;20644;-69
2021/06/05 13:19:51;;;;;;;1352.20;999.90;;;20.30;99.90;;;;;;5112567;28;20440;-69
2021/06/05 13:22:16;;;;;;;1345.50;999.90;;;20.00;99.90;;;;;;5113831;28;20249;-69
2021/06/05 13:25:03;;;;;;;1328.20;999.90;;;19.80;99.90;;;;;;5113772;28;20197;-69
2021/06/05 13:27:30;;;;;;;1316.30;999.90;;;19.70;99.90;;;;;;5113807;28;20655;-69
2021/06/05 13:30:20;;;;;;;1310.60;999.90;;;19.40;99.90;;;;;;5113492;28;20351;-69
2021/06/05 13:32:49;;;;;;;1291.97;999.90;;;19.20;99.90;;;;;;5113653;28;20174;-69
2021/06/05 13:35:20;;;;;;;1250.53;999.90;;;19.00;99.90;;;;;;5113705;28;20521;-69
2021/06/05 13:37:56;;;;;;;1223.18;999.90;;;18.80;99.90;;;;;;5113765;28;20224;-69
2021/06/05 13:40:22;;;;;;;1187.97;999.90;;;18.60;99.90;;;;;;5113648;28;20158;-69
2021/06/05 13:42:50;;;;;;;1190.90;999.90;;;18.60;99.90;;;;;;5113539;28;20175;-69
2021/06/05 13:45:23;;;;;;;1139.30;999.90;;;18.60;99.90;;;;;;5113547;28;20628;-69
2021/06/05 13:47:49;;;;;;;1173.95;999.90;;;18.60;99.90;;;;;;5113508;28;20173;-69
2021/06/05 13:50:17;;;;;;;1171.30;999.90;;;18.70;99.90;;;;;;5113425;28;20203;-69
2021/06/05 13:52:43;;;;;;;1179.50;999.90;;;18.70;99.90;;;;;;5113444;28;20198;-69
2021/06/05 13:55:24;;;;;;;1169.18;999.90;;;18.70;99.90;;;;;;5113310;28;20209;-69
2021/06/05 13:57:53;;;;;;;1140.47;999.90;;;18.70;99.90;;;;;;5113253;28;20618;-69
2021/06/05 14:00:19;;;;;;;1163.95;999.90;;;18.90;99.90;;;;;;5113388;28;20224;-69
2021/06/05 14:02:45;;;;;;;1166.68;999.90;;;18.80;99.90;;;;;;5113367;28;20258;-69
2021/06/05 14:05:12;;;;;;;1179.47;999.90;;;18.70;99.90;;;;;;5113377;28;20249;-69
2021/06/05 14:07:38;;;;;;;1172.65;999.90;;;18.60;99.90;;;;;;5113264;28;20232;-69
2021/06/05 14:10:05;;;;;;;1110.60;999.90;;;18.40;99.90;;;;;;5113235;28;20574;-69
2021/06/05 14:12:32;;;;;;;1105.38;999.90;;;18.30;99.90;;;;;;5113118;28;20230;-69
2021/06/05 14:14:59;;;;;;;1103.05;999.90;;;18.30;99.90;;;;;;5113154;28;20702;-69
2021/06/05 14:17:25;;;;;;;1113.60;999.90;;;18.50;99.90;;;;;;5116113;28;20522;-69
2021/06/05 14:19:52;;;;;;;1149.28;999.90;;;18.60;99.90;;;;;;5117046;28;20476;-69
2021/06/05 14:22:19;;;;;;;1148.35;999.90;;;18.70;99.90;;;;;;5116951;28;20243;-69
2021/06/05 14:24:45;;;;;;;1156.35;999.90;;;18.70;99.90;;;;;;5116949;28;20191;-69
2021/06/05 14:27:11;;;;;;;1177.10;999.90;;;18.60;99.90;;;;;;5116977;28;20175;-69
2021/06/05 14:29:37;;;;;;;1153.93;999.90;;;18.60;99.90;;;;;;5116681;28;20222;-69
2021/06/05 14:32:03;;;;;;;1127.30;999.90;;;18.50;99.90;;;;;;5116856;28;20174;-69
2021/06/05 14:34:29;;;;;;;1132.50;999.90;;;18.50;99.90;;;;;;5116869;28;20631;-69
2021/06/05 14:36:54;;;;;;;1151.47;999.90;;;18.50;99.90;;;;;;5116782;28;20178;-69
2021/06/05 14:39:21;;;;;;;1159.05;999.90;;;18.50;99.90;;;;;;5116800;28;20183;-69
2021/06/05 14:41:58;;;;;;;1162.35;999.90;;;18.60;99.90;;;;;;5116773;28;20171;-69
2021/06/05 14:44:25;;;;;;;1124.45;999.90;;;18.60;99.90;;;;;;5116696;28;20173;-69
2021/06/05 14:46:52;;;;;;;1143.75;999.90;;;18.60;99.90;;;;;;5116664;28;20636;-69
2021/06/05 14:49:18;;;;;;;1166.60;999.90;;;18.60;99.90;;;;;;5116476;28;20285;-69
2021/06/05 14:51:44;;;;;;;1137.53;999.90;;;18.60;99.90;;;;;;5116672;28;20258;-69
2021/06/05 14:54:13;;;;;;;1117.63;999.90;;;18.50;99.90;;;;;;5116555;28;20246;-69
2021/06/05 14:56:40;;;;;;;1103.18;999.90;;;18.30;99.90;;;;;;5116497;28;20162;-69
2021/06/05 14:59:06;;;;;;;1076.25;993.63;;;18.20;99.90;;;;;;5115130;28;20170;-69
2021/06/05 15:01:31;;;;;;;1064.13;985.20;;;18.10;99.90;;;;;;5116399;28;20171;-69
2021/06/05 15:03:57;;;;;;;1027.90;955.33;;;18.00;99.90;;;;;;5116312;28;20224;-69
2021/06/05 15:06:23;;;;;;;1006.30;935.40;;;17.90;99.90;;;;;;5116323;28;20171;-69
2021/06/05 15:08:51;;;;;;;1002.95;932.85;;;17.90;99.90;;;;;;5116238;28;20193;-69
2021/06/05 15:11:21;;;;;;;974.58;907.40;;;17.70;99.90;;;;;;5116226;28;20501;-69
2021/06/05 15:13:47;;;;;;;979.30;911.85;;;17.60;99.90;;;;;;5116159;28;20159;-69
